Terminal Aerodrome Forecast
Issued by NWS Buffalo, NY

Home | Current Version | Previous Version | Text Only | Print | Product List | Glossary On
Versions: 1 2 3 4 5 6 7 8 9 10 11 12 13 14 15 16 17 18 19 20 21 22 23
000
FTUS41 KBUF 241738
TAFROC
TAF
KROC 241738Z 2418/2518 12012G20KT P6SM BKN200
     FM242200 11008KT P6SM BKN110
     FM250800 11008KT P6SM -RA OVC060
     FM251100 10010KT 6SM RA OVC020
     FM251300 10010G16KT 5SM RA OVC015
     FM251500 08009KT 5SM -RA OVC007=

USA.gov is the U.S. government's official web portal to all federal, state and local government web resources and services.